createdAt,value
2016-12-27T11:44:14.711Z,20.58
2016-12-27T11:44:55.399Z,20.54
2016-12-27T11:45:36.029Z,20.56
2016-12-27T11:46:16.662Z,20.54
2016-12-27T11:46:57.369Z,20.61
2016-12-27T11:47:38.011Z,20.61
2016-12-27T11:48:18.661Z,20.61
2016-12-27T11:48:59.297Z,20.8
2016-12-27T11:49:39.936Z,20.89
2016-12-27T11:50:20.555Z,21.01
2016-12-27T11:51:01.219Z,20.87
2016-12-27T11:51:41.840Z,20.89
2016-12-27T11:52:22.639Z,20.91
2016-12-27T11:53:03.260Z,20.87
2016-12-27T11:53:43.893Z,20.83
2016-12-27T11:54:24.542Z,20.77
2016-12-27T11:55:05.177Z,20.79
2016-12-27T11:55:45.854Z,20.84
2016-12-27T11:56:26.506Z,20.76
2016-12-27T11:57:07.126Z,20.8
2016-12-27T11:57:47.768Z,20.68
2016-12-27T11:58:28.390Z,20.59
2016-12-27T11:59:09.083Z,20.53
2016-12-27T11:59:49.709Z,20.43
2016-12-27T12:00:30.435Z,20.21
2016-12-27T12:01:11.066Z,20.27
2016-12-27T12:01:51.707Z,20.13
2016-12-27T12:02:32.337Z,20.02
2016-12-27T12:03:12.974Z,20.12
2016-12-27T12:03:53.597Z,20.08
2016-12-27T12:04:34.235Z,20.09
2016-12-27T12:05:14.901Z,20.05
2016-12-27T12:05:55.534Z,20.08
2016-12-27T12:06:36.169Z,20.02
2016-12-27T12:07:16.803Z,20.2
2016-12-27T12:07:57.549Z,20.2
2016-12-27T12:08:38.171Z,20.21
2016-12-27T12:09:18.913Z,20.25
2016-12-27T12:09:59.542Z,20.3
2016-12-27T12:10:40.170Z,20.28
2016-12-27T12:11:20.827Z,20.41
2016-12-27T12:12:01.458Z,20.43
2016-12-27T12:12:42.164Z,20.59
2016-12-27T12:13:22.815Z,20.8
2016-12-27T12:14:03.438Z,20.71
2016-12-27T12:14:44.074Z,20.68
2016-12-27T12:15:24.704Z,20.61
2016-12-27T12:16:05.334Z,20.56
2016-12-27T12:16:45.958Z,20.56
2016-12-27T12:17:26.592Z,20.53
2016-12-27T12:18:07.243Z,20.71
2016-12-27T12:18:47.868Z,20.71
2016-12-27T12:19:28.585Z,20.77
2016-12-27T12:20:09.250Z,20.76
2016-12-27T12:20:49.869Z,20.84
2016-12-27T12:21:30.497Z,20.84
2016-12-27T12:22:11.128Z,20.74
2016-12-27T12:22:51.767Z,20.71
2016-12-27T12:23:32.411Z,20.61
2016-12-27T12:24:13.102Z,20.62
2016-12-27T12:24:53.728Z,20.61
2016-12-27T12:25:34.363Z,20.54
2016-12-27T12:26:14.979Z,20.58
2016-12-27T12:26:55.607Z,20.69
2016-12-27T12:27:36.228Z,20.76
2016-12-27T12:28:16.928Z,20.77
2016-12-27T12:28:57.569Z,20.89
2016-12-27T12:29:38.193Z,20.87
2016-12-27T12:30:18.821Z,20.91
2016-12-27T12:30:59.496Z,20.93
2016-12-27T12:31:40.128Z,20.99
2016-12-27T12:32:20.825Z,21.01
2016-12-27T12:33:01.467Z,21.05
2016-12-27T12:33:42.097Z,21.05
2016-12-27T12:34:22.728Z,21.08
2016-12-27T12:35:03.372Z,21.11
2016-12-27T12:35:44.012Z,21.06
2016-12-27T12:36:24.645Z,21.11
2016-12-27T12:37:05.273Z,21.08
2016-12-27T12:37:45.908Z,21.21
2016-12-27T12:38:26.540Z,21.21
2016-12-27T12:39:07.182Z,21.17
2016-12-27T12:39:47.813Z,21.26
2016-12-27T12:40:28.443Z,21.19
2016-12-27T12:41:09.070Z,21.23
2016-12-27T12:41:49.696Z,21.23
2016-12-27T12:42:30.345Z,21.3
2016-12-27T12:43:10.973Z,21.2
2016-12-27T12:43:51.604Z,21.23
2016-12-27T12:44:32.231Z,21.26
2016-12-27T12:45:12.871Z,21.26
2016-12-27T12:45:53.521Z,21.19
2016-12-27T12:46:34.199Z,21.2
2016-12-27T12:47:14.871Z,21.3
2016-12-27T12:47:55.496Z,21.29
2016-12-27T12:48:36.134Z,21.24
2016-12-27T12:49:16.864Z,21.29
2016-12-27T12:49:57.475Z,21.3
2016-12-27T12:50:38.144Z,21.34
2016-12-27T12:51:18.778Z,21.34
2016-12-27T12:51:59.401Z,21.3
2016-12-27T12:52:40.149Z,21.3
2016-12-27T12:53:20.824Z,21.3
2016-12-27T12:54:01.449Z,21.24
2016-12-27T12:54:42.080Z,21.36
2016-12-27T12:55:22.708Z,21.3
2016-12-27T12:56:03.399Z,21.32
2016-12-27T12:56:44.068Z,21.38
2016-12-27T12:57:24.750Z,21.32
2016-12-27T12:58:05.382Z,21.35
2016-12-27T12:58:46.014Z,21.36
2016-12-27T12:59:26.696Z,21.36
2016-12-27T13:00:07.334Z,21.38
2016-12-27T13:00:47.955Z,21.23
2016-12-27T13:01:28.597Z,21.14
2016-12-27T13:02:09.221Z,21.05
2016-12-27T13:02:49.844Z,21.05
2016-12-27T13:03:30.472Z,21.04
2016-12-27T13:04:11.105Z,20.9
2016-12-27T13:04:51.729Z,20.9
2016-12-27T13:05:32.370Z,20.91
2016-12-27T13:06:13.095Z,20.87
2016-12-27T13:06:53.738Z,20.87
2016-12-27T13:07:34.381Z,20.87
2016-12-27T13:08:15.025Z,20.9
2016-12-27T13:08:55.649Z,21.02
2016-12-27T13:09:36.287Z,21.13
2016-12-27T13:10:16.957Z,21.13
2016-12-27T13:10:57.621Z,21.17
2016-12-27T13:11:38.385Z,21.21
2016-12-27T13:12:19.007Z,21.21
2016-12-27T13:12:59.642Z,21.14
2016-12-27T13:13:40.266Z,21.04
2016-12-27T13:14:20.907Z,21.05
2016-12-27T13:15:01.559Z,21.06
2016-12-27T13:15:42.173Z,21.13
2016-12-27T13:16:22.821Z,20.99
2016-12-27T13:17:03.453Z,20.9
2016-12-27T13:17:44.103Z,20.84
2016-12-27T13:18:24.737Z,20.76
2016-12-27T13:19:05.375Z,20.79
2016-12-27T13:19:46.002Z,20.86
2016-12-27T13:20:26.641Z,20.74
2016-12-27T13:21:07.274Z,20.8
2016-12-27T13:21:47.903Z,20.72
2016-12-27T13:22:28.631Z,20.79
2016-12-27T13:23:09.343Z,20.71
2016-12-27T13:23:50.039Z,20.8
2016-12-27T13:24:30.667Z,20.8
2016-12-27T13:25:11.292Z,20.72
2016-12-27T13:25:51.939Z,20.8
2016-12-27T13:26:32.568Z,20.72
2016-12-27T13:27:13.207Z,20.8
2016-12-27T13:27:53.840Z,20.72
2016-12-27T13:28:34.463Z,20.76
2016-12-27T13:29:15.109Z,20.74
2016-12-27T13:29:55.738Z,20.74
2016-12-27T13:30:36.432Z,20.76
2016-12-27T13:31:17.086Z,20.71
2016-12-27T13:31:57.710Z,20.68
2016-12-27T13:32:38.334Z,20.59
2016-12-27T13:33:18.962Z,20.3
2016-12-27T13:33:59.597Z,20.16
2016-12-27T13:34:40.953Z,19.91
2016-12-27T13:35:21.579Z,19.86
2016-12-27T13:36:02.224Z,19.79
2016-12-27T13:36:42.928Z,19.73
2016-12-27T13:37:23.600Z,19.73
2016-12-27T13:38:04.233Z,19.73
2016-12-27T13:38:44.888Z,19.75
2016-12-27T13:39:25.509Z,19.63
2016-12-27T13:40:06.125Z,19.72
2016-12-27T13:40:46.749Z,19.66
2016-12-27T13:41:27.378Z,19.72
2016-12-27T13:42:08.007Z,19.51
2016-12-27T13:42:48.642Z,19.51
2016-12-27T13:43:29.296Z,19.58
2016-12-27T13:44:09.938Z,19.57
2016-12-27T13:44:50.639Z,19.47
2016-12-27T13:45:31.268Z,19.6
2016-12-27T13:46:12.005Z,19.57
2016-12-27T13:46:52.631Z,19.54
2016-12-27T13:47:33.348Z,19.42
2016-12-27T13:48:13.898Z,19.5
2016-12-27T13:48:54.579Z,19.42
2016-12-27T13:49:35.208Z,19.4
2016-12-27T13:50:15.838Z,19.51
2016-12-27T13:50:56.492Z,19.51
2016-12-27T13:51:37.206Z,19.58
2016-12-27T13:52:17.746Z,19.48
2016-12-27T13:52:58.379Z,19.54
2016-12-27T13:53:39.020Z,19.42
2016-12-27T13:54:19.674Z,19.42
2016-12-27T13:55:00.306Z,19.43
2016-12-27T13:55:40.935Z,19.4
2016-12-27T13:56:21.579Z,19.46
2016-12-27T13:57:02.214Z,19.36
2016-12-27T13:57:42.923Z,19.5
2016-12-27T13:58:24.346Z,19.32
2016-12-27T13:59:05.038Z,19.38
2016-12-27T13:59:45.864Z,19.39
2016-12-27T14:00:26.505Z,19.32
2016-12-27T14:01:07.220Z,19.4
2016-12-27T14:01:47.857Z,19.36
2016-12-27T14:02:28.492Z,19.36
2016-12-27T14:03:09.128Z,19.35
2016-12-27T14:03:49.753Z,19.36
2016-12-27T14:04:30.380Z,19.33
2016-12-27T14:05:11.010Z,19.29
2016-12-27T14:05:51.650Z,19.24
2016-12-27T14:06:32.281Z,19.24
2016-12-27T14:07:12.920Z,19.32
2016-12-27T14:07:53.558Z,19.25
2016-12-27T14:08:34.189Z,19.29
2016-12-27T14:09:14.810Z,19.24
2016-12-27T14:09:55.490Z,19.21
2016-12-27T14:10:36.132Z,19.29
2016-12-27T14:11:16.799Z,19.24
2016-12-27T14:11:57.533Z,19.33
2016-12-27T14:12:38.160Z,19.28
2016-12-27T14:13:18.827Z,19.31
2016-12-27T14:13:59.512Z,19.2
2016-12-27T14:14:40.138Z,19.17
2016-12-27T14:15:20.813Z,19.31
2016-12-27T14:16:01.502Z,19.17
2016-12-27T14:16:42.126Z,19.15
2016-12-27T14:17:22.769Z,19.2
2016-12-27T14:18:03.467Z,19.28
2016-12-27T14:18:44.128Z,19.29
2016-12-27T14:19:24.772Z,19.29
2016-12-27T14:20:05.499Z,19.38
2016-12-27T14:20:46.126Z,19.47
2016-12-27T14:21:26.753Z,19.61
2016-12-27T14:22:07.427Z,19.68
2016-12-27T14:22:48.068Z,19.78
2016-12-27T14:23:28.690Z,19.79
2016-12-27T14:24:09.979Z,19.86
2016-12-27T14:24:50.602Z,19.84
2016-12-27T14:25:31.233Z,19.94
2016-12-27T14:26:11.863Z,19.76
2016-12-27T14:26:52.504Z,19.93
2016-12-27T14:27:33.139Z,19.9
2016-12-27T14:28:13.774Z,19.94
2016-12-27T14:28:54.404Z,19.91
2016-12-27T14:29:35.063Z,20.03
2016-12-27T14:30:15.801Z,20.05
2016-12-27T14:30:56.427Z,20.1
2016-12-27T14:31:37.057Z,20.1
2016-12-27T14:32:17.700Z,20.15
2016-12-27T14:32:58.335Z,20.09
2016-12-27T14:33:38.960Z,20.13
2016-12-27T14:34:19.589Z,20.12
2016-12-27T14:35:00.215Z,20.21
2016-12-27T14:35:40.865Z,20.15
2016-12-27T14:36:21.508Z,20.03
2016-12-27T14:37:02.134Z,19.91
2016-12-27T14:37:42.760Z,19.79
2016-12-27T14:38:23.379Z,19.78
2016-12-27T14:39:04.014Z,19.69
2016-12-27T14:39:44.642Z,19.68
2016-12-27T14:40:25.267Z,19.58
2016-12-27T14:41:05.888Z,19.53
2016-12-27T14:41:46.536Z,19.51
2016-12-27T14:42:27.222Z,19.47
2016-12-27T14:43:07.848Z,19.48
2016-12-27T14:43:48.475Z,19.4
2016-12-27T14:44:29.106Z,19.51
2016-12-27T14:45:09.754Z,19.51
2016-12-27T14:45:50.407Z,19.55
2016-12-27T14:46:31.114Z,19.4
2016-12-27T14:47:11.737Z,19.5
2016-12-27T14:47:52.371Z,19.55
2016-12-27T14:48:33.067Z,19.53
2016-12-27T14:49:13.718Z,19.57
2016-12-27T14:49:54.352Z,19.61
2016-12-27T14:50:35.017Z,19.79
2016-12-27T14:51:15.648Z,19.84
2016-12-27T14:51:56.288Z,19.76
2016-12-27T14:52:36.950Z,20
2016-12-27T14:53:17.593Z,19.93
2016-12-27T14:53:58.238Z,20.09
2016-12-27T14:54:38.961Z,20.06
2016-12-27T14:55:19.599Z,20.05
2016-12-27T14:56:00.239Z,20.09
2016-12-27T14:56:40.873Z,20.09
2016-12-27T14:57:21.553Z,20.25
2016-12-27T14:58:02.179Z,20.25
2016-12-27T14:58:42.893Z,20.33
2016-12-27T14:59:23.519Z,20.15
2016-12-27T15:00:04.148Z,20.1
2016-12-27T15:00:44.780Z,20.12
2016-12-27T15:01:25.439Z,20.1
2016-12-27T15:02:06.066Z,20.02
2016-12-27T15:02:46.700Z,20.03
2016-12-27T15:03:27.333Z,19.98
2016-12-27T15:04:07.967Z,20
2016-12-27T15:04:48.604Z,20.09
2016-12-27T15:05:29.231Z,20.05
2016-12-27T15:06:09.862Z,20
2016-12-27T15:06:50.601Z,19.79
2016-12-27T15:07:31.363Z,19.73
2016-12-27T15:08:11.997Z,19.69
2016-12-27T15:08:52.687Z,19.61
2016-12-27T15:09:33.345Z,19.57
2016-12-27T15:10:13.984Z,19.48
2016-12-27T15:10:54.617Z,19.51
2016-12-27T15:11:35.242Z,19.61
2016-12-27T15:12:15.891Z,19.54
2016-12-27T15:12:56.549Z,19.73
2016-12-27T15:13:37.191Z,19.83
2016-12-27T15:14:17.900Z,20.03
2016-12-27T15:14:58.545Z,20.13
2016-12-27T15:15:39.174Z,20.24
2016-12-27T15:16:19.810Z,20.21
2016-12-27T15:17:00.449Z,20.24
2016-12-27T15:17:41.068Z,20.42
2016-12-27T15:18:21.762Z,20.43
2016-12-27T15:19:02.416Z,20.54
2016-12-27T15:19:43.044Z,20.54
2016-12-27T15:20:23.683Z,20.69
2016-12-27T15:21:04.313Z,20.71
2016-12-27T15:21:44.971Z,20.86
2016-12-27T15:22:25.596Z,20.93
2016-12-27T15:23:06.235Z,20.9
2016-12-27T15:23:46.860Z,20.95
2016-12-27T15:24:27.496Z,21.2
2016-12-27T15:25:08.239Z,21.36
2016-12-27T15:25:48.905Z,21.56
2016-12-27T15:26:29.542Z,21.63
2016-12-27T15:27:10.164Z,21.74
2016-12-27T15:27:50.788Z,21.81
2016-12-27T15:28:31.576Z,21.85
2016-12-27T15:29:12.210Z,21.95
2016-12-27T15:29:52.846Z,21.9
2016-12-27T15:30:33.531Z,22.39
2016-12-27T15:31:14.216Z,22.43
2016-12-27T15:31:54.869Z,22.07
2016-12-27T15:32:35.496Z,22.01
2016-12-27T15:33:16.340Z,21.76
2016-12-27T15:33:56.977Z,21.6
2016-12-27T15:34:37.602Z,21.51
2016-12-27T15:35:18.300Z,21.51
2016-12-27T15:35:58.998Z,21.69
2016-12-27T15:36:39.588Z,21.69
2016-12-27T15:37:20.232Z,21.66
2016-12-27T15:38:00.859Z,21.66
2016-12-27T15:38:41.501Z,21.76
2016-12-27T15:39:22.184Z,22.1
2016-12-27T15:40:02.822Z,21.79
2016-12-27T15:40:43.452Z,21.72
2016-12-27T15:41:24.088Z,21.54
2016-12-27T15:42:04.731Z,21.56
2016-12-27T15:42:45.365Z,21.54
2016-12-27T15:43:25.991Z,21.46
2016-12-27T15:44:06.676Z,21.5
2016-12-27T15:44:47.322Z,21.36
2016-12-27T15:45:27.992Z,21.38
2016-12-27T15:46:08.616Z,21.35
2016-12-27T15:46:49.264Z,21.39
2016-12-27T15:47:29.983Z,21.34
2016-12-27T15:48:10.606Z,21.3
2016-12-27T15:48:51.241Z,21.41
2016-12-27T15:49:31.866Z,21.54
2016-12-27T15:50:12.515Z,21.94
2016-12-27T15:50:53.144Z,22.04
2016-12-27T15:51:33.852Z,22.34
2016-12-27T15:52:14.485Z,22.28
2016-12-27T15:52:55.117Z,22.12
2016-12-27T15:53:35.744Z,22.02
2016-12-27T15:54:16.383Z,22.01
2016-12-27T15:54:57.017Z,21.92
2016-12-27T15:55:37.651Z,21.75
2016-12-27T15:56:18.305Z,21.81
2016-12-27T15:56:59.105Z,21.78
2016-12-27T15:57:39.754Z,21.67
2016-12-27T15:58:20.380Z,21.94
2016-12-27T15:59:01.013Z,22.02
2016-12-27T15:59:41.664Z,21.98
2016-12-27T16:00:22.309Z,22.01
2016-12-27T16:01:02.938Z,22.07
2016-12-27T16:01:43.570Z,22.09
2016-12-27T16:02:24.198Z,22.13
2016-12-27T16:03:04.835Z,22.31
2016-12-27T16:03:45.461Z,22.19
2016-12-27T16:04:26.090Z,22.2
2016-12-27T16:05:06.728Z,22.25
2016-12-27T16:05:47.362Z,22.39
2016-12-27T16:06:27.991Z,22.41
2016-12-27T16:07:08.646Z,22.39
2016-12-27T16:07:49.289Z,22.47
2016-12-27T16:08:29.920Z,22.39
2016-12-27T16:09:10.571Z,22.27
2016-12-27T16:09:51.216Z,22.39
2016-12-27T16:10:31.853Z,22.35
2016-12-27T16:11:12.577Z,22.39
2016-12-27T16:11:53.222Z,22.49
2016-12-27T16:12:33.861Z,22.62
2016-12-27T16:13:14.485Z,22.77
2016-12-27T16:13:55.124Z,22.6
2016-12-27T16:14:35.817Z,22.67
2016-12-27T16:15:16.479Z,22.71
2016-12-27T16:15:57.686Z,22.74
2016-12-27T16:16:38.381Z,22.6
2016-12-27T16:17:18.938Z,22.49
2016-12-27T16:17:59.557Z,22.71
2016-12-27T16:18:40.200Z,22.86
2016-12-27T16:19:20.838Z,22.72
2016-12-27T16:20:01.511Z,22.69
2016-12-27T16:20:42.141Z,22.64
2016-12-27T16:21:22.821Z,22.72
2016-12-27T16:22:03.459Z,22.57
2016-12-27T16:22:44.122Z,22.64
2016-12-27T16:23:24.742Z,22.59
2016-12-27T16:24:05.416Z,22.34
2016-12-27T16:24:46.043Z,22.34
2016-12-27T16:25:26.672Z,22.22
2016-12-27T16:26:07.304Z,22.44
2016-12-27T16:26:48.042Z,22.47
2016-12-27T16:27:28.682Z,22.49
2016-12-27T16:28:09.309Z,22.35
2016-12-27T16:28:49.952Z,22.31
2016-12-27T16:29:30.597Z,22.32
2016-12-27T16:30:11.292Z,22.47
2016-12-27T16:30:51.918Z,22.69
2016-12-27T16:31:32.663Z,22.74
2016-12-27T16:32:13.291Z,22.57
2016-12-27T16:32:54.067Z,22.59
2016-12-27T16:33:34.728Z,22.59
2016-12-27T16:34:15.342Z,22.64
2016-12-27T16:34:56.125Z,22.52
2016-12-27T16:35:37.305Z,22.47
2016-12-27T16:36:17.931Z,22.47
2016-12-27T16:36:58.594Z,22.53
2016-12-27T16:37:39.251Z,22.43
2016-12-27T16:38:19.878Z,22.29
2016-12-27T16:39:00.562Z,22.49
2016-12-27T16:39:41.203Z,22.53
2016-12-27T16:40:21.824Z,22.52
2016-12-27T16:41:02.517Z,22.75
2016-12-27T16:41:43.143Z,22.83
2016-12-27T16:42:23.794Z,23.11
2016-12-27T16:43:04.420Z,22.87
2016-12-27T16:43:45.054Z,22.74
2016-12-27T16:44:25.699Z,22.74
2016-12-27T16:45:06.336Z,22.72
2016-12-27T16:45:46.961Z,22.65
2016-12-27T16:46:27.600Z,22.59
2016-12-27T16:47:08.221Z,22.52
2016-12-27T16:47:48.851Z,22.56
2016-12-27T16:48:29.536Z,22.49
2016-12-27T16:49:10.176Z,22.49
2016-12-27T16:49:50.804Z,22.75
2016-12-27T16:50:31.428Z,22.78
2016-12-27T16:51:12.067Z,22.75
2016-12-27T16:51:52.698Z,22.53
2016-12-27T16:52:33.340Z,22.39
2016-12-27T16:53:13.992Z,22.22
2016-12-27T16:53:54.859Z,22.1
2016-12-27T16:54:35.500Z,22.2
2016-12-27T16:55:16.178Z,22.13
2016-12-27T16:55:56.813Z,21.91
2016-12-27T16:56:37.455Z,21.79
2016-12-27T16:57:18.166Z,21.63
2016-12-27T16:57:58.847Z,21.64
2016-12-27T16:58:39.482Z,21.6
2016-12-27T16:59:20.117Z,21.6
2016-12-27T17:00:00.738Z,21.63
2016-12-27T17:00:41.384Z,21.57
2016-12-27T17:01:22.018Z,21.53
2016-12-27T17:02:02.648Z,21.6
2016-12-27T17:02:43.284Z,21.85
2016-12-27T17:03:23.984Z,21.94
2016-12-27T17:04:04.680Z,22.04
2016-12-27T17:04:45.304Z,22.16
2016-12-27T17:05:25.935Z,22.19
2016-12-27T17:06:06.582Z,22.31
2016-12-27T17:06:47.218Z,22.27
2016-12-27T17:07:27.852Z,22.28
2016-12-27T17:08:08.499Z,22.31
2016-12-27T17:08:49.126Z,22.52
2016-12-27T17:09:29.850Z,22.49
2016-12-27T17:10:10.478Z,22.54
2016-12-27T17:10:51.108Z,22.57
2016-12-27T17:11:31.740Z,22.56
2016-12-27T17:12:12.387Z,22.43
2016-12-27T17:12:53.027Z,22.44
2016-12-27T17:13:33.771Z,22.46
2016-12-27T17:14:14.526Z,22.49
2016-12-27T17:14:55.313Z,22.65
2016-12-27T17:15:35.948Z,22.78
2016-12-27T17:16:16.581Z,22.82
2016-12-27T17:16:57.295Z,22.82
2016-12-27T17:17:37.970Z,22.87
2016-12-27T17:18:18.639Z,22.82
2016-12-27T17:18:59.268Z,22.96
2016-12-27T17:19:39.914Z,22.97
2016-12-27T17:20:20.550Z,23.02
2016-12-27T17:21:01.287Z,22.77
2016-12-27T17:21:41.934Z,22.72
2016-12-27T17:22:22.567Z,22.65
2016-12-27T17:23:03.191Z,22.64
2016-12-27T17:23:43.814Z,22.68
2016-12-27T17:24:24.438Z,22.65
2016-12-27T17:25:05.076Z,22.94
2016-12-27T17:25:45.750Z,23.01
2016-12-27T17:26:26.389Z,22.93
2016-12-27T17:27:07.031Z,23.15
2016-12-27T17:27:47.650Z,23.46
2016-12-27T17:28:28.281Z,23.15
2016-12-27T17:29:08.922Z,23.19
2016-12-27T17:29:49.613Z,23.15
2016-12-27T17:30:30.246Z,22.97
2016-12-27T17:31:10.954Z,23.05
2016-12-27T17:31:51.584Z,23.17
2016-12-27T17:32:32.218Z,23.09
2016-12-27T17:33:12.884Z,22.96
2016-12-27T17:33:53.576Z,22.96
2016-12-27T17:34:34.249Z,23.04
2016-12-27T17:35:14.875Z,23.01
2016-12-27T17:35:55.504Z,23.12
2016-12-27T17:36:36.135Z,23.92
2016-12-27T17:37:16.763Z,25.9
2016-12-27T17:37:57.455Z,24.52
2016-12-27T17:38:38.090Z,24.07
2016-12-27T17:39:18.730Z,23.82
2016-12-27T17:39:59.366Z,23.55
2016-12-27T17:40:40.005Z,23.6
2016-12-27T17:41:20.657Z,23.32
2016-12-27T17:42:01.372Z,23.23
2016-12-27T17:42:42.125Z,23.29
2016-12-27T17:43:22.756Z,23.19
2016-12-27T17:44:03.460Z,23.01
2016-12-27T17:44:44.092Z,23.07
2016-12-27T17:45:24.727Z,23.11
2016-12-27T17:46:05.366Z,23.02
2016-12-27T17:46:45.993Z,23.05
2016-12-27T17:47:26.650Z,23.02
2016-12-27T17:48:07.296Z,22.94
2016-12-27T17:48:47.916Z,23.08
2016-12-27T17:49:28.548Z,22.97
2016-12-27T17:50:09.179Z,23.55
2016-12-27T17:50:49.809Z,23.5
2016-12-27T17:51:30.446Z,23.35
2016-12-27T17:52:11.088Z,23.31
2016-12-27T17:52:51.715Z,23.12
2016-12-27T17:53:32.348Z,23.07
2016-12-27T17:54:12.983Z,23.19
2016-12-27T17:54:53.623Z,23.17
2016-12-27T17:55:34.267Z,23.15
2016-12-27T17:56:14.890Z,23.01
2016-12-27T17:56:55.540Z,23.04
2016-12-27T17:57:36.159Z,23.05
2016-12-27T17:58:16.787Z,23.02
2016-12-27T17:58:57.425Z,23.02
2016-12-27T17:59:38.054Z,22.99
2016-12-27T18:00:18.701Z,22.93
2016-12-27T18:00:59.321Z,22.97
2016-12-27T18:01:39.949Z,22.97
2016-12-27T18:02:20.592Z,22.99
2016-12-27T18:03:01.294Z,23.71
2016-12-27T18:03:41.949Z,23.26
2016-12-27T18:04:22.588Z,22.94
2016-12-27T18:05:03.220Z,22.78
2016-12-27T18:05:43.853Z,22.75
2016-12-27T18:06:24.495Z,22.69
2016-12-27T18:07:05.190Z,22.69
2016-12-27T18:07:45.821Z,22.52
2016-12-27T18:08:26.490Z,22.53
2016-12-27T18:09:07.179Z,22.49
2016-12-27T18:09:47.811Z,22.46
2016-12-27T18:10:28.443Z,22.47
2016-12-27T18:11:09.071Z,22.39
2016-12-27T18:11:49.726Z,22.38
2016-12-27T18:12:30.397Z,22.39
2016-12-27T18:13:11.082Z,22.37
2016-12-27T18:13:51.716Z,22.38
2016-12-27T18:14:32.345Z,22.37
2016-12-27T18:15:13.073Z,22.38
2016-12-27T18:15:53.799Z,22.37
2016-12-27T18:16:34.429Z,22.35
2016-12-27T18:17:15.054Z,22.31
2016-12-27T18:17:55.689Z,22.28
2016-12-27T18:18:36.332Z,22.35
2016-12-27T18:19:17.045Z,22.41
2016-12-27T18:19:57.691Z,22.37
2016-12-27T18:20:38.385Z,22.38
2016-12-27T18:21:19.023Z,22.28
2016-12-27T18:21:59.653Z,22.27
2016-12-27T18:22:40.356Z,22.27
2016-12-27T18:23:20.996Z,22.29
2016-12-27T18:24:01.630Z,22.31
2016-12-27T18:24:42.268Z,22.29
2016-12-27T18:25:22.904Z,22.13
2016-12-27T18:26:03.525Z,22.23
2016-12-27T18:26:44.154Z,22.25
2016-12-27T18:27:24.788Z,22.14
2016-12-27T18:28:05.450Z,22.25
2016-12-27T18:28:46.076Z,22.27
2016-12-27T18:29:26.713Z,22.27
2016-12-27T18:30:07.341Z,22.14
2016-12-27T18:30:48.079Z,22.19
2016-12-27T18:31:28.730Z,22.22
2016-12-27T18:32:09.439Z,22.19
2016-12-27T18:32:50.140Z,22.19
2016-12-27T18:33:30.774Z,22.14
2016-12-27T18:34:11.470Z,22.19
2016-12-27T18:34:52.125Z,22.19
2016-12-27T18:35:32.910Z,22.14
2016-12-27T18:36:13.546Z,22.19
2016-12-27T18:36:54.177Z,22.14
2016-12-27T18:37:34.837Z,22.06
2016-12-27T18:38:15.463Z,22.07
2016-12-27T18:38:56.096Z,21.88
2016-12-27T18:39:36.800Z,21.72
2016-12-27T18:40:17.428Z,21.57
2016-12-27T18:40:58.064Z,21.5
2016-12-27T18:41:38.782Z,21.54
2016-12-27T18:42:19.411Z,21.64
2016-12-27T18:43:00.049Z,21.57
2016-12-27T18:43:40.690Z,21.44
2016-12-27T18:44:21.321Z,21.3
2016-12-27T18:45:01.957Z,21.23
2016-12-27T18:45:42.607Z,21.2
2016-12-27T18:46:23.228Z,21.14
2016-12-27T18:47:03.991Z,21.14
2016-12-27T18:47:44.613Z,21.08
2016-12-27T18:48:25.257Z,20.99
2016-12-27T18:49:05.882Z,21.04
2016-12-27T18:49:46.612Z,20.96
2016-12-27T18:50:27.242Z,20.98
2016-12-27T18:51:07.870Z,20.98
2016-12-27T18:51:48.500Z,20.9
2016-12-27T18:52:29.132Z,20.93
2016-12-27T18:53:09.765Z,20.81
2016-12-27T18:53:50.418Z,20.86
2016-12-27T18:54:31.050Z,20.69
2016-12-27T18:55:11.697Z,20.65
2016-12-27T18:55:52.417Z,20.56
2016-12-27T18:56:33.162Z,20.65
2016-12-27T18:57:13.797Z,20.58
2016-12-27T18:57:54.460Z,20.61
2016-12-27T18:58:35.122Z,20.56
2016-12-27T18:59:15.758Z,20.56
2016-12-27T18:59:56.431Z,20.58
2016-12-27T19:00:37.146Z,20.56
2016-12-27T19:01:17.847Z,20.56
2016-12-27T19:01:58.495Z,20.72
2016-12-27T19:02:39.239Z,20.76
2016-12-27T19:03:19.882Z,20.84
2016-12-27T19:04:00.509Z,20.87
2016-12-27T19:04:41.140Z,20.91
2016-12-27T19:05:21.772Z,20.98
2016-12-27T19:06:02.399Z,21.05
2016-12-27T19:06:43.047Z,21.04
2016-12-27T19:07:23.759Z,20.99
2016-12-27T19:08:04.409Z,21.08
2016-12-27T19:08:45.096Z,21.02
2016-12-27T19:09:25.785Z,21.05
2016-12-27T19:10:06.427Z,21.02
2016-12-27T19:10:47.076Z,21.06
2016-12-27T19:11:27.721Z,21.05
2016-12-27T19:12:08.360Z,21.09
2016-12-27T19:12:49.006Z,21.01
2016-12-27T19:13:29.723Z,21.06
2016-12-27T19:14:10.359Z,21.11
2016-12-27T19:14:51.014Z,21.11
2016-12-27T19:15:31.644Z,21.06
2016-12-27T19:16:12.415Z,21.06
2016-12-27T19:16:53.048Z,21.09
2016-12-27T19:17:33.734Z,21.08
2016-12-27T19:18:14.459Z,21.04
2016-12-27T19:18:55.136Z,21.11
2016-12-27T19:19:35.775Z,21.08
2016-12-27T19:20:16.480Z,21.09
2016-12-27T19:20:57.217Z,21.09
2016-12-27T19:21:37.864Z,21.05
2016-12-27T19:22:18.545Z,21.04
2016-12-27T19:22:59.192Z,21.01
2016-12-27T19:23:39.822Z,21.05
2016-12-27T19:24:20.505Z,21.05
2016-12-27T19:25:01.145Z,21.01
2016-12-27T19:25:41.776Z,21.06
2016-12-27T19:26:22.417Z,21.06
2016-12-27T19:27:03.051Z,21.06
2016-12-27T19:27:43.746Z,21.05
2016-12-27T19:28:24.388Z,21.05
2016-12-27T19:29:05.030Z,20.96
2016-12-27T19:29:45.663Z,21.06
2016-12-27T19:30:26.323Z,21.02
2016-12-27T19:31:06.981Z,21.02
2016-12-27T19:31:47.599Z,21.06
2016-12-27T19:32:28.226Z,21.02
2016-12-27T19:33:08.860Z,21.01
2016-12-27T19:33:49.474Z,21.09
2016-12-27T19:34:30.115Z,20.98
2016-12-27T19:35:10.804Z,20.98
2016-12-27T19:35:51.504Z,20.98
2016-12-27T19:36:32.133Z,20.99
2016-12-27T19:37:12.764Z,21.01
2016-12-27T19:37:53.408Z,21.02
2016-12-27T19:38:34.060Z,21.04
2016-12-27T19:39:14.695Z,21.01
2016-12-27T19:39:55.326Z,20.96
2016-12-27T19:40:35.972Z,21.02
2016-12-27T19:41:16.615Z,21.02
2016-12-27T19:41:57.378Z,20.98
2016-12-27T19:42:38.026Z,20.99
2016-12-27T19:43:18.655Z,21.01
2016-12-27T19:43:59.347Z,20.93
2016-12-27T19:44:39.979Z,20.99
2016-12-27T19:45:20.613Z,20.96
2016-12-27T19:46:01.300Z,20.93
2016-12-27T19:46:42.033Z,20.98
2016-12-27T19:47:22.702Z,20.98
2016-12-27T19:48:03.340Z,20.99
2016-12-27T19:48:44.045Z,20.96
2016-12-27T19:49:24.677Z,20.99
2016-12-27T19:50:05.349Z,20.96
2016-12-27T19:50:46.003Z,20.91
2016-12-27T19:51:26.629Z,20.96
2016-12-27T19:52:07.268Z,20.91
2016-12-27T19:52:47.907Z,21.01
2016-12-27T19:53:28.537Z,20.98
2016-12-27T19:54:09.174Z,20.89
2016-12-27T19:54:49.809Z,20.93
2016-12-27T19:55:30.445Z,20.91
2016-12-27T19:56:11.079Z,20.95
2016-12-27T19:56:51.723Z,21.01
2016-12-27T19:57:32.348Z,20.93
2016-12-27T19:58:12.995Z,20.9
2016-12-27T19:58:53.639Z,20.93
2016-12-27T19:59:34.274Z,20.98
2016-12-27T20:00:14.910Z,20.87
2016-12-27T20:00:55.547Z,20.89
2016-12-27T20:01:36.182Z,20.87
2016-12-27T20:02:16.880Z,20.87
2016-12-27T20:02:57.530Z,20.91
2016-12-27T20:03:38.171Z,20.87
2016-12-27T20:04:18.874Z,20.93
2016-12-27T20:04:59.512Z,20.86
2016-12-27T20:05:40.231Z,20.87
2016-12-27T20:06:20.794Z,20.87
2016-12-27T20:07:01.442Z,20.86
2016-12-27T20:07:42.198Z,20.9
2016-12-27T20:08:22.832Z,20.91
2016-12-27T20:09:03.465Z,20.86
2016-12-27T20:09:44.099Z,20.86
2016-12-27T20:10:24.755Z,20.91
2016-12-27T20:11:05.399Z,20.95
2016-12-27T20:11:46.060Z,20.93
2016-12-27T20:12:26.702Z,20.9
2016-12-27T20:13:07.347Z,20.87
2016-12-27T20:13:48.058Z,20.87
2016-12-27T20:14:28.687Z,20.93
2016-12-27T20:15:09.317Z,20.95
2016-12-27T20:15:49.945Z,20.93
2016-12-27T20:16:30.577Z,20.87
2016-12-27T20:17:11.216Z,20.89
2016-12-27T20:17:51.906Z,20.86
2016-12-27T20:18:32.542Z,20.93
2016-12-27T20:19:13.174Z,20.89
2016-12-27T20:19:53.842Z,20.74
2016-12-27T20:20:34.473Z,20.61
2016-12-27T20:21:15.138Z,20.43
2016-12-27T20:21:55.832Z,20.39
2016-12-27T20:22:36.550Z,20.34
2016-12-27T20:23:17.103Z,20.35
2016-12-27T20:23:57.788Z,20.27
2016-12-27T20:24:38.415Z,20.16
2016-12-27T20:25:19.100Z,20.16
2016-12-27T20:25:59.780Z,20.09
2016-12-27T20:26:40.448Z,20.08
2016-12-27T20:27:21.089Z,20
2016-12-27T20:28:01.731Z,20
2016-12-27T20:28:42.444Z,20.1
2016-12-27T20:29:23.067Z,20.12